Time;durP1;ratioP1;P1;durP2;ratioP2;P2;SDS_P1;SDS_P2;PMS_P1;PMS_P2;Temp;Humidity;BMP_temperature;BMP_pressure;BME280_temperature;BME280_humidity;BME280_pressure;Samples;Min_cycle;Max_cycle;Signal;HPM_P1;HPM_P2
2021/11/19 00:01:06;;;;;;;1.25;0.35;;;7.90;99.90;;;;;;4983759;28;20138;-65
2021/11/19 00:03:38;;;;;;;3.40;0.93;;;7.90;99.90;;;;;;4988270;28;20536;-77
2021/11/19 00:06:06;;;;;;;0.82;0.30;;;7.90;99.90;;;;;;4989328;28;20042;-64
2021/11/19 00:08:34;;;;;;;1.20;0.38;;;7.90;99.90;;;;;;4989311;28;20062;-64
2021/11/19 00:11:15;;;;;;;0.68;0.68;;;7.80;99.90;;;;;;4987531;28;20042;-72
2021/11/19 00:13:43;;;;;;;1.35;0.50;;;7.80;99.90;;;;;;4983416;28;20060;-66
2021/11/19 00:16:12;;;;;;;1.00;0.50;;;7.80;99.90;;;;;;4991344;28;20050;-64
2021/11/19 00:18:39;;;;;;;1.92;0.60;;;7.80;99.90;;;;;;4984514;28;20057;-67
2021/11/19 00:21:07;;;;;;;0.82;0.30;;;7.80;99.90;;;;;;4989740;28;20070;-65
2021/11/19 00:23:35;;;;;;;0.30;0.20;;;7.80;99.90;;;;;;4991284;28;20103;-65
2021/11/19 00:26:02;;;;;;;1.20;0.95;;;7.80;99.90;;;;;;4988492;28;20112;-64
2021/11/19 00:28:29;;;;;;;1.85;0.40;;;7.80;99.90;;;;;;4988376;28;20429;-64
2021/11/19 00:30:56;;;;;;;0.93;0.40;;;7.80;99.90;;;;;;4989591;28;20042;-63
2021/11/19 00:33:24;;;;;;;1.00;0.40;;;7.70;99.90;;;;;;4988810;28;20046;-63
2021/11/19 00:35:52;;;;;;;0.68;0.50;;;7.80;99.90;;;;;;4990042;28;20496;-63
2021/11/19 00:38:21;;;;;;;1.25;0.35;;;7.80;99.90;;;;;;4985938;28;20137;-66
2021/11/19 00:40:55;;;;;;;3.72;0.57;;;7.80;99.90;;;;;;4988371;28;20035;-71
2021/11/19 00:43:24;;;;;;;1.20;0.47;;;7.80;99.90;;;;;;4985194;28;20042;-66
2021/11/19 00:45:52;;;;;;;0.30;0.20;;;7.80;99.90;;;;;;4988926;28;20133;-66
2021/11/19 00:48:22;;;;;;;1.83;0.68;;;7.80;99.90;;;;;;4986112;28;20112;-68
2021/11/19 00:50:58;;;;;;;2.42;0.30;;;7.80;99.90;;;;;;4988773;28;20097;-64
2021/11/19 00:53:26;;;;;;;1.08;0.25;;;7.80;99.90;;;;;;4993237;28;20591;-67
2021/11/19 00:55:54;;;;;;;1.15;0.20;;;7.80;99.90;;;;;;4994523;28;20045;-63
2021/11/19 00:58:22;;;;;;;1.70;0.90;;;7.90;99.90;;;;;;4988905;28;20047;-75
2021/11/19 01:00:53;;;;;;;2.25;0.45;;;7.90;99.90;;;;;;4986868;28;20512;-65
2021/11/19 01:03:22;;;;;;;1.52;0.25;;;7.90;99.90;;;;;;4989781;28;20054;-63
2021/11/19 01:05:50;;;;;;;0.55;0.35;;;7.90;99.90;;;;;;5000963;28;20050;-63
2021/11/19 01:08:17;;;;;;;4.15;0.55;;;7.90;99.90;;;;;;4987441;28;20066;-64
2021/11/19 01:10:46;;;;;;;0.43;0.32;;;7.90;99.90;;;;;;4985392;28;20573;-63
2021/11/19 01:13:14;;;;;;;3.33;0.43;;;7.90;99.90;;;;;;5002934;28;20035;-64
2021/11/19 01:15:49;;;;;;;0.75;0.30;;;7.90;99.90;;;;;;4988958;28;20058;-76
2021/11/19 01:18:24;;;;;;;0.50;0.22;;;7.90;99.90;;;;;;4987139;28;20106;-73
2021/11/19 01:21:00;;;;;;;1.27;0.25;;;7.90;99.90;;;;;;5002097;28;20053;-63
2021/11/19 01:23:30;;;;;;;0.73;0.52;;;7.90;99.90;;;;;;4986718;28;20038;-63
2021/11/19 01:26:06;;;;;;;2.83;0.77;;;7.90;99.90;;;;;;5003494;28;20049;-63
2021/11/19 01:28:33;;;;;;;2.65;0.52;;;7.90;99.90;;;;;;5001549;28;20086;-63
2021/11/19 01:31:07;;;;;;;2.03;0.47;;;7.90;99.90;;;;;;4987063;28;20050;-65
2021/11/19 01:33:35;;;;;;;0.75;0.40;;;7.90;99.90;;;;;;4986203;28;20042;-67
2021/11/19 01:36:21;;;;;;;0.40;0.40;;;7.90;99.90;;;;;;4985881;28;20057;-63
2021/11/19 01:39:14;;;;;;;0.30;0.30;;;8.00;99.90;;;;;;4987425;28;20434;-65
2021/11/19 01:42:42;;;;;;;2.83;0.35;;;8.00;99.90;;;;;;4989648;28;20042;-63
2021/11/19 01:45:14;;;;;;;0.10;0.10;;;8.00;99.90;;;;;;4977128;28;20447;-69
2021/11/19 01:47:46;;;;;;;0.38;0.30;;;8.00;99.90;;;;;;5016200;28;20069;-67
2021/11/19 01:50:22;;;;;;;0.90;0.20;;;8.00;99.90;;;;;;4986972;28;20563;-64
2021/11/19 01:53:01;;;;;;;0.50;0.50;;;8.00;99.90;;;;;;5002267;28;20030;-64
2021/11/19 01:55:33;;;;;;;0.35;0.25;;;8.00;99.90;;;;;;4986694;28;20778;-68
2021/11/19 01:58:06;;;;;;;0.30;0.20;;;8.00;99.90;;;;;;4987270;28;20153;-63
2021/11/19 02:00:42;;;;;;;0.60;0.30;;;8.00;99.90;;;;;;4984485;28;20048;-64
2021/11/19 02:03:13;;;;;;;0.77;0.75;;;8.00;99.90;;;;;;4986923;28;20046;-64
2021/11/19 02:05:51;;;;;;;0.22;0.10;;;8.00;99.90;;;;;;4988625;28;20206;-67
2021/11/19 02:08:22;;;;;;;0.50;0.20;;;8.00;99.90;;;;;;4999733;28;20066;-63
2021/11/19 02:11:16;;;;;;;;;;;8.00;99.90;;;;;;4987018;28;20073;-68
2021/11/19 02:14:00;;;;;;;0.75;0.25;;;8.00;99.90;;;;;;4985942;28;19933;-63
2021/11/19 02:16:36;;;;;;;1.02;0.47;;;8.00;99.90;;;;;;4984001;28;20089;-63
2021/11/19 02:19:11;;;;;;;0.93;0.47;;;8.00;99.90;;;;;;4986475;28;20054;-63
2021/11/19 02:21:58;;;;;;;1.58;0.20;;;8.00;99.90;;;;;;4986113;28;20118;-64
2021/11/19 02:24:31;;;;;;;1.00;0.35;;;8.00;99.90;;;;;;4993907;28;20130;-64
2021/11/19 02:27:19;;;;;;;1.95;0.50;;;8.00;99.90;;;;;;4994321;28;20552;-64
2021/11/19 02:29:52;;;;;;;0.65;0.25;;;8.00;99.90;;;;;;4987898;28;20048;-69
2021/11/19 02:32:30;;;;;;;1.67;0.40;;;8.00;99.90;;;;;;5001266;28;20121;-63
2021/11/19 02:35:00;;;;;;;2.17;0.52;;;8.10;99.90;;;;;;5003206;28;20046;-64
2021/11/19 02:37:36;;;;;;;0.43;0.40;;;8.10;99.90;;;;;;4985767;28;20054;-64
2021/11/19 02:40:10;;;;;;;1.95;0.50;;;8.10;99.90;;;;;;4982409;28;20038;-63
2021/11/19 02:43:01;;;;;;;0.90;0.85;;;8.10;99.90;;;;;;4983708;28;20125;-63
2021/11/19 02:45:41;;;;;;;0.45;0.20;;;8.10;99.90;;;;;;5001765;28;20338;-64
2021/11/19 02:48:17;;;;;;;0.50;0.30;;;8.10;99.90;;;;;;4978620;28;20137;-69
2021/11/19 02:50:46;;;;;;;1.65;0.68;;;8.10;99.90;;;;;;4989913;28;20050;-63
2021/11/19 02:53:13;;;;;;;3.80;0.60;;;8.10;99.90;;;;;;4987093;28;20055;-64
2021/11/19 02:55:44;;;;;;;1.05;0.40;;;8.10;99.90;;;;;;4992128;28;20058;-66
2021/11/19 02:58:19;;;;;;;1.02;0.40;;;8.20;99.90;;;;;;4995481;28;20062;-69
2021/11/19 03:00:52;;;;;;;1.70;0.47;;;8.20;99.90;;;;;;5001600;28;20506;-68
2021/11/19 03:03:20;;;;;;;5.30;2.63;;;8.20;99.90;;;;;;4984511;28;20462;-64
2021/11/19 03:05:47;;;;;;;2.22;1.00;;;8.20;99.90;;;;;;5011668;28;20038;-64
2021/11/19 03:08:14;;;;;;;1.40;0.60;;;8.20;99.90;;;;;;4987958;28;20038;-63
2021/11/19 03:10:46;;;;;;;2.72;0.90;;;8.20;99.90;;;;;;5019664;28;20134;-66
2021/11/19 03:13:14;;;;;;;0.82;0.60;;;8.20;99.90;;;;;;4990166;28;20034;-65
2021/11/19 03:15:45;;;;;;;0.40;0.30;;;8.20;99.90;;;;;;4989209;28;20412;-66
2021/11/19 03:18:14;;;;;;;0.65;0.40;;;8.20;99.90;;;;;;4988769;28;20060;-64
2021/11/19 03:20:47;;;;;;;0.55;0.50;;;8.10;99.90;;;;;;4988236;28;20046;-64
2021/11/19 03:23:14;;;;;;;1.55;0.40;;;8.10;99.90;;;;;;4989379;28;20508;-70
2021/11/19 03:25:43;;;;;;;2.97;0.73;;;8.10;99.90;;;;;;4989470;28;20041;-64
2021/11/19 03:28:13;;;;;;;0.73;0.40;;;8.10;99.90;;;;;;4989136;28;20381;-67
2021/11/19 03:30:41;;;;;;;3.80;1.07;;;8.10;99.90;;;;;;4986995;28;20129;-64
2021/11/19 03:33:12;;;;;;;0.50;0.30;;;8.10;99.90;;;;;;4991399;28;20311;-71
2021/11/19 03:35:41;;;;;;;1.95;0.63;;;8.10;99.90;;;;;;4989291;28;20093;-64
2021/11/19 03:38:08;;;;;;;2.03;0.55;;;8.10;99.90;;;;;;4989398;28;20042;-77
2021/11/19 03:40:38;;;;;;;1.05;0.70;;;8.10;99.90;;;;;;4985349;28;20050;-69
2021/11/19 03:43:10;;;;;;;4.32;0.55;;;8.10;99.90;;;;;;5012516;28;20130;-68
2021/11/19 03:45:42;;;;;;;2.90;0.60;;;8.10;99.90;;;;;;4990221;28;20046;-64
2021/11/19 03:48:10;;;;;;;0.73;0.30;;;8.10;99.90;;;;;;5000289;28;20053;-71
2021/11/19 03:50:50;;;;;;;6.00;0.57;;;8.10;99.90;;;;;;4996215;28;20047;-69
2021/11/19 03:53:19;;;;;;;1.58;0.85;;;8.00;99.90;;;;;;4989854;28;20280;-64
2021/11/19 03:55:49;;;;;;;0.77;0.52;;;8.10;99.90;;;;;;4989876;28;20038;-64
2021/11/19 03:58:21;;;;;;;1.17;1.13;;;8.10;99.90;;;;;;4987709;28;20052;-64
2021/11/19 04:00:57;;;;;;;2.35;0.68;;;8.10;99.90;;;;;;5019280;28;20144;-69
2021/11/19 04:03:25;;;;;;;0.90;0.50;;;8.10;99.90;;;;;;4987199;28;20083;-68
2021/11/19 04:05:52;;;;;;;1.80;0.43;;;8.10;99.90;;;;;;4987095;28;20042;-63
2021/11/19 04:08:22;;;;;;;2.03;0.98;;;8.10;99.90;;;;;;5000104;28;20042;-63
2021/11/19 04:10:59;;;;;;;2.58;0.77;;;8.10;99.90;;;;;;4985744;28;20070;-63
2021/11/19 04:13:26;;;;;;;3.78;1.30;;;8.10;99.90;;;;;;4989236;28;20047;-64
2021/11/19 04:15:57;;;;;;;0.95;0.60;;;8.10;99.90;;;;;;4988448;28;20499;-63
2021/11/19 04:18:26;;;;;;;1.30;0.70;;;8.10;99.90;;;;;;4986428;28;20125;-66
2021/11/19 04:20:55;;;;;;;0.73;0.70;;;8.10;99.90;;;;;;5000374;28;20138;-65
2021/11/19 04:23:25;;;;;;;0.60;0.50;;;8.10;99.90;;;;;;4989220;28;20102;-66
2021/11/19 04:25:54;;;;;;;1.30;0.95;;;8.10;99.90;;;;;;4987157;28;20160;-63
2021/11/19 04:28:22;;;;;;;3.45;0.60;;;8.20;99.90;;;;;;4985769;28;20476;-65
2021/11/19 04:31:04;;;;;;;1.63;0.77;;;8.20;99.90;;;;;;5021888;28;20050;-64
2021/11/19 04:33:34;;;;;;;5.95;1.58;;;8.20;99.90;;;;;;4985483;28;20038;-64
2021/11/19 04:36:01;;;;;;;4.03;1.20;;;8.20;99.90;;;;;;4988130;28;20575;-64
2021/11/19 04:38:29;;;;;;;1.13;0.63;;;8.20;99.90;;;;;;5001466;28;20082;-65
2021/11/19 04:40:57;;;;;;;1.58;0.88;;;8.20;99.90;;;;;;5022342;28;20048;-64
2021/11/19 04:43:26;;;;;;;1.63;1.02;;;8.30;99.90;;;;;;4988539;28;20038;-63
2021/11/19 04:45:55;;;;;;;1.10;0.70;;;8.20;99.90;;;;;;4990823;28;20045;-64
2021/11/19 04:48:24;;;;;;;8.88;1.73;;;8.20;99.90;;;;;;5018923;28;20046;-66
2021/11/19 04:50:53;;;;;;;2.78;0.93;;;8.30;99.90;;;;;;4986962;28;20314;-64
2021/11/19 04:53:23;;;;;;;3.17;1.08;;;8.30;99.90;;;;;;5001267;28;20043;-64
2021/11/19 04:55:52;;;;;;;2.13;0.88;;;8.30;99.90;;;;;;5023853;28;20048;-67
2021/11/19 04:58:22;;;;;;;3.60;1.10;;;8.30;99.90;;;;;;4984813;28;20129;-63
2021/11/19 05:00:56;;;;;;;2.08;0.73;;;8.30;99.90;;;;;;4987058;28;20046;-66
2021/11/19 05:03:35;;;;;;;2.70;0.95;;;8.30;99.90;;;;;;4988056;28;20042;-63
2021/11/19 05:06:02;;;;;;;8.70;1.63;;;8.40;99.90;;;;;;4987916;28;20046;-66
2021/11/19 05:08:31;;;;;;;5.28;1.92;;;8.40;99.90;;;;;;4982907;28;20089;-71
2021/11/19 05:10:58;;;;;;;10.32;1.98;;;8.40;99.90;;;;;;4988711;28;20042;-64
2021/11/19 05:13:34;;;;;;;5.15;1.60;;;8.40;99.90;;;;;;4987044;28;20428;-64
2021/11/19 05:16:07;;;;;;;8.55;1.63;;;8.40;99.90;;;;;;5020654;28;20046;-65
2021/11/19 05:18:35;;;;;;;3.53;1.23;;;8.50;99.90;;;;;;4979254;28;20053;-65
2021/11/19 05:21:04;;;;;;;2.28;1.17;;;8.50;99.90;;;;;;4987905;28;20731;-68
2021/11/19 05:23:36;;;;;;;5.97;2.47;;;8.50;99.90;;;;;;4983968;28;20665;-65
2021/11/19 05:26:05;;;;;;;2.05;0.95;;;8.50;99.90;;;;;;4986965;28;20414;-65
2021/11/19 05:28:32;;;;;;;3.95;1.50;;;8.50;99.90;;;;;;5000216;28;20133;-67
2021/11/19 05:31:02;;;;;;;6.95;1.65;;;8.50;99.90;;;;;;4984070;28;20073;-65
2021/11/19 05:33:32;;;;;;;4.33;1.50;;;8.50;99.90;;;;;;5002317;28;20132;-66
2021/11/19 05:35:59;;;;;;;6.82;1.38;;;8.50;99.90;;;;;;5019257;28;20471;-69
2021/11/19 05:38:29;;;;;;;11.90;2.55;;;8.60;99.90;;;;;;4981075;28;20038;-65
2021/11/19 05:40:56;;;;;;;7.18;1.92;;;8.60;99.90;;;;;;4992524;28;20114;-68
2021/11/19 05:43:25;;;;;;;9.70;2.92;;;8.60;99.90;;;;;;4984467;28;20500;-68
2021/11/19 05:46:20;;;;;;;5.47;1.65;;;8.60;99.90;;;;;;4976154;28;20042;-64
2021/11/19 05:48:56;;;;;;;10.07;2.38;;;8.60;99.90;;;;;;4987738;28;20600;-65
2021/11/19 05:51:25;;;;;;;8.18;3.00;;;8.60;99.90;;;;;;5012232;28;20555;-68
2021/11/19 05:53:53;;;;;;;10.18;2.00;;;8.60;99.90;;;;;;4998876;28;20405;-64
2021/11/19 05:56:23;;;;;;;9.55;1.92;;;8.60;99.90;;;;;;4983331;28;20042;-64
2021/11/19 05:58:51;;;;;;;9.05;2.13;;;8.60;99.90;;;;;;5001387;28;20074;-65
2021/11/19 06:01:34;;;;;;;6.53;1.70;;;8.60;99.90;;;;;;5013548;28;20082;-64
2021/11/19 06:04:07;;;;;;;10.70;2.10;;;8.60;99.90;;;;;;4981911;28;20065;-74
2021/11/19 06:06:52;;;;;;;7.65;2.60;;;8.60;99.90;;;;;;4983702;28;20160;-64
2021/11/19 06:09:40;;;;;;;8.70;1.55;;;8.60;99.90;;;;;;4983904;28;20124;-65
2021/11/19 06:12:13;;;;;;;9.60;2.92;;;8.60;99.90;;;;;;4986292;28;20457;-64
2021/11/19 06:14:47;;;;;;;10.18;2.15;;;8.60;99.90;;;;;;4985675;28;20112;-65
2021/11/19 06:17:18;;;;;;;10.18;2.65;;;8.60;99.90;;;;;;4998909;28;20142;-64
2021/11/19 06:19:49;;;;;;;9.18;1.88;;;8.60;99.90;;;;;;4985286;28;20046;-66
2021/11/19 06:22:39;;;;;;;17.33;3.15;;;8.60;99.90;;;;;;4987052;28;20141;-64
2021/11/19 06:25:11;;;;;;;20.73;3.53;;;8.60;99.90;;;;;;5003205;28;20464;-68
2021/11/19 06:27:39;;;;;;;8.23;1.85;;;8.60;99.90;;;;;;5018521;28;20105;-68
2021/11/19 06:30:11;;;;;;;19.73;3.45;;;8.50;99.90;;;;;;4989872;28;20046;-68
2021/11/19 06:32:38;;;;;;;12.82;4.25;;;8.50;99.90;;;;;;4990468;28;20129;-69
2021/11/19 06:35:06;;;;;;;18.90;2.95;;;8.50;99.90;;;;;;4989632;28;20129;-67
2021/11/19 06:37:34;;;;;;;9.40;3.45;;;8.50;99.90;;;;;;4990958;28;20035;-64
2021/11/19 06:40:13;;;;;;;12.13;3.17;;;8.50;99.90;;;;;;4988966;28;20046;-67
2021/11/19 06:43:00;;;;;;;20.40;2.50;;;8.50;99.90;;;;;;4983888;28;20192;-64
2021/11/19 06:45:47;;;;;;;8.75;3.13;;;8.50;99.90;;;;;;4969574;28;20578;-65
2021/11/19 06:48:30;;;;;;;9.35;2.72;;;8.60;99.90;;;;;;5016796;28;20128;-65
2021/11/19 06:51:17;;;;;;;13.45;2.72;;;8.60;99.90;;;;;;5000944;28;20057;-65
2021/11/19 06:54:09;;;;;;;22.15;3.67;;;8.60;99.90;;;;;;5004343;28;20336;-64
2021/11/19 06:57:03;;;;;;;25.40;5.38;;;8.60;99.90;;;;;;4988998;28;20055;-64
2021/11/19 06:59:39;;;;;;;15.75;3.10;;;8.60;99.90;;;;;;4988818;28;20038;-64
2021/11/19 07:02:08;;;;;;;14.18;3.20;;;8.60;99.90;;;;;;4989623;28;20038;-64
2021/11/19 07:04:35;;;;;;;11.48;4.13;;;8.60;99.90;;;;;;4985851;28;21157;-64
2021/11/19 07:07:06;;;;;;;21.15;3.75;;;8.60;99.90;;;;;;4989745;28;20050;-64
2021/11/19 07:09:37;;;;;;;14.90;2.90;;;8.50;99.90;;;;;;4990455;28;20081;-64
2021/11/19 07:12:07;;;;;;;23.35;4.20;;;8.50;99.90;;;;;;5004384;28;20522;-67
2021/11/19 07:14:38;;;;;;;22.85;3.92;;;8.50;99.90;;;;;;4989392;28;20126;-71
2021/11/19 07:17:07;;;;;;;20.95;3.28;;;8.50;99.90;;;;;;4987448;28;20445;-66
2021/11/19 07:19:39;;;;;;;19.27;3.72;;;8.60;99.90;;;;;;5002439;28;20039;-64
2021/11/19 07:22:07;;;;;;;13.38;3.67;;;8.50;99.90;;;;;;4988142;28;20042;-65
2021/11/19 07:24:37;;;;;;;16.75;3.88;;;8.50;99.90;;;;;;4988690;28;20062;-65
2021/11/19 07:27:11;;;;;;;20.42;5.07;;;8.50;99.90;;;;;;5008244;28;20079;-64
2021/11/19 07:29:40;;;;;;;21.98;4.03;;;8.50;99.90;;;;;;5003669;28;20090;-65
2021/11/19 07:32:28;;;;;;;22.50;4.05;;;8.50;99.90;;;;;;4977049;28;20050;-70
2021/11/19 07:35:11;;;;;;;18.45;4.03;;;8.50;99.90;;;;;;5014583;28;20050;-65
2021/11/19 07:37:57;;;;;;;21.73;4.07;;;8.50;99.90;;;;;;4989395;28;20054;-68
2021/11/19 07:40:36;;;;;;;14.75;5.78;;;8.50;99.90;;;;;;4998018;28;20072;-64
2021/11/19 07:43:32;;;;;;;20.90;4.50;;;8.50;99.90;;;;;;4986162;28;20042;-66
2021/11/19 07:46:05;;;;;;;15.93;4.88;;;8.50;99.90;;;;;;4987498;28;20038;-68
2021/11/19 07:48:44;;;;;;;18.50;4.18;;;8.50;99.90;;;;;;4999155;28;20138;-64
2021/11/19 07:51:30;;;;;;;22.35;4.47;;;8.50;99.90;;;;;;4989751;28;20397;-66
2021/11/19 07:53:57;;;;;;;19.25;3.92;;;8.50;99.90;;;;;;5001421;28;20049;-64
2021/11/19 07:56:29;;;;;;;18.70;5.30;;;8.50;99.90;;;;;;4986830;28;20089;-64
2021/11/19 07:59:04;;;;;;;22.60;6.85;;;8.50;99.90;;;;;;5003129;28;20043;-64
2021/11/19 08:01:32;;;;;;;17.42;4.60;;;8.50;99.90;;;;;;5000535;28;20046;-71
2021/11/19 08:03:59;;;;;;;30.65;6.43;;;8.60;99.90;;;;;;5004269;28;20062;-67
2021/11/19 08:06:28;;;;;;;21.13;5.22;;;8.60;99.90;;;;;;5020203;28;20057;-74
2021/11/19 08:09:15;;;;;;;14.30;4.22;;;8.60;99.90;;;;;;4986707;28;20041;-64
2021/11/19 08:11:51;;;;;;;22.58;3.83;;;8.60;99.90;;;;;;4986637;28;20126;-69
2021/11/19 08:14:18;;;;;;;25.83;5.15;;;8.70;99.90;;;;;;4988436;28;20400;-64
2021/11/19 08:16:51;;;;;;;24.45;5.05;;;8.70;99.90;;;;;;5014560;28;20046;-68
2021/11/19 08:19:43;;;;;;;30.17;5.63;;;8.70;99.90;;;;;;4987986;28;20050;-64
2021/11/19 08:22:13;;;;;;;22.25;5.57;;;8.70;99.90;;;;;;4987364;28;20424;-65
2021/11/19 08:24:41;;;;;;;27.52;5.30;;;8.70;99.90;;;;;;4985205;28;20050;-65
2021/11/19 08:27:15;;;;;;;21.63;4.97;;;8.70;99.90;;;;;;4986304;28;20050;-65
2021/11/19 08:29:45;;;;;;;18.95;4.63;;;8.70;99.90;;;;;;4983558;28;20130;-68
2021/11/19 08:32:13;;;;;;;27.30;6.00;;;8.70;99.90;;;;;;4985745;28;20531;-64
2021/11/19 08:34:40;;;;;;;26.67;5.38;;;8.80;99.90;;;;;;4987603;28;20570;-67
2021/11/19 08:37:08;;;;;;;25.80;5.53;;;8.80;99.90;;;;;;4987504;28;20044;-65
2021/11/19 08:39:36;;;;;;;18.60;4.90;;;8.80;99.90;;;;;;4987244;28;20497;-67
2021/11/19 08:42:06;;;;;;;35.38;4.50;;;8.80;99.90;;;;;;4986092;28;20054;-64
2021/11/19 08:44:33;;;;;;;24.83;6.38;;;8.80;99.90;;;;;;4982854;28;20054;-75
2021/11/19 08:47:21;;;;;;;19.80;4.43;;;8.80;99.90;;;;;;4985717;28;20091;-64
2021/11/19 08:49:48;;;;;;;25.55;6.00;;;8.80;99.90;;;;;;4987062;28;20065;-66
2021/11/19 08:52:18;;;;;;;25.33;4.70;;;8.80;99.90;;;;;;4987790;28;20042;-65
2021/11/19 08:54:47;;;;;;;31.67;7.63;;;8.90;99.90;;;;;;4985041;28;20381;-69
2021/11/19 08:57:19;;;;;;;19.35;5.20;;;8.90;99.90;;;;;;4986246;28;20129;-71
2021/11/19 08:59:47;;;;;;;18.77;4.20;;;8.90;99.90;;;;;;4984479;28;20097;-71
2021/11/19 09:02:20;;;;;;;23.65;4.50;;;8.90;99.90;;;;;;4985244;28;20054;-71
2021/11/19 09:05:01;;;;;;;24.60;4.10;;;8.90;99.90;;;;;;4987692;28;20050;-67
2021/11/19 09:07:31;;;;;;;19.48;4.00;;;8.90;99.90;;;;;;4984935;28;20100;-64
2021/11/19 09:09:58;;;;;;;19.20;4.35;;;9.00;99.90;;;;;;4988403;28;20476;-66
2021/11/19 09:12:29;;;;;;;15.57;3.63;;;9.00;99.90;;;;;;4986060;28;20088;-65
2021/11/19 09:14:56;;;;;;;26.08;4.65;;;9.00;99.90;;;;;;4986668;28;20106;-67
2021/11/19 09:17:24;;;;;;;15.30;3.90;;;9.00;99.90;;;;;;4988233;28;20511;-65
2021/11/19 09:19:57;;;;;;;16.58;3.90;;;9.00;99.90;;;;;;4988481;28;20761;-67
2021/11/19 09:22:36;;;;;;;18.33;6.03;;;9.00;99.90;;;;;;4987079;28;20038;-65
2021/11/19 09:25:09;;;;;;;19.38;3.90;;;9.10;99.90;;;;;;4985015;28;20476;-70
2021/11/19 09:27:36;;;;;;;19.80;4.60;;;9.10;99.90;;;;;;4984078;28;20388;-64
2021/11/19 09:30:15;;;;;;;13.77;3.97;;;9.10;99.90;;;;;;4984689;28;20100;-64
2021/11/19 09:32:48;;;;;;;17.92;3.67;;;9.20;99.90;;;;;;4984419;28;20677;-64
2021/11/19 09:35:17;;;;;;;10.63;3.63;;;9.20;99.90;;;;;;4982774;28;20657;-66
2021/11/19 09:37:46;;;;;;;21.10;3.92;;;9.30;99.90;;;;;;4984419;28;20046;-64
2021/11/19 09:40:13;;;;;;;15.23;2.72;;;9.30;99.90;;;;;;4982100;28;20126;-64
2021/11/19 09:42:53;;;;;;;18.52;4.75;;;9.30;99.90;;;;;;4980968;28;20046;-64
2021/11/19 09:45:55;;;;;;;10.90;2.47;;;9.40;99.90;;;;;;4983202;28;20061;-71
2021/11/19 09:48:37;;;;;;;8.15;2.17;;;9.40;99.90;;;;;;4995235;28;20103;-64
2021/11/19 09:51:29;;;;;;;13.68;2.25;;;9.50;99.90;;;;;;4982469;28;20042;-63
2021/11/19 09:54:20;;;;;;;9.38;1.98;;;9.50;99.90;;;;;;4985301;28;20056;-64
2021/11/19 09:57:05;;;;;;;7.15;2.28;;;9.50;99.90;;;;;;4982024;28;20124;-66
2021/11/19 09:59:40;;;;;;;8.10;2.10;;;9.60;99.90;;;;;;4982397;28;20571;-64
2021/11/19 10:02:44;;;;;;;6.38;1.35;;;9.70;99.90;;;;;;4984145;28;20050;-66
2021/11/19 10:06:05;;;;;;;8.27;2.33;;;9.70;99.90;;;;;;4981380;28;20136;-68
2021/11/19 10:08:41;;;;;;;8.35;1.83;;;9.90;99.90;;;;;;5011749;28;20123;-65
2021/11/19 10:11:25;;;;;;;6.43;2.00;;;9.90;99.90;;;;;;4981443;28;20041;-69
2021/11/19 10:14:29;;;;;;;12.05;1.88;;;10.00;99.90;;;;;;4982239;28;20485;-65
2021/11/19 10:17:15;;;;;;;4.30;1.60;;;10.10;99.90;;;;;;4983189;28;20030;-65
2021/11/19 10:19:50;;;;;;;8.40;1.77;;;10.10;99.90;;;;;;4983703;28;20128;-68
2021/11/19 10:22:34;;;;;;;9.68;1.85;;;10.10;99.90;;;;;;4984960;28;20050;-65
2021/11/19 10:25:16;;;;;;;13.15;1.40;;;10.10;99.90;;;;;;4982283;28;20073;-67
2021/11/19 10:27:50;;;;;;;7.72;1.95;;;10.10;99.90;;;;;;4985480;28;20121;-64
2021/11/19 10:30:33;;;;;;;5.13;1.15;;;10.10;99.90;;;;;;4982982;28;20101;-65
2021/11/19 10:33:25;;;;;;;4.28;1.40;;;10.20;99.90;;;;;;4979445;28;20390;-65
2021/11/19 10:36:06;;;;;;;6.97;1.13;;;10.20;99.90;;;;;;4983538;28;20070;-64
2021/11/19 10:38:41;;;;;;;;;;;10.40;99.90;;;;;;4978763;28;20074;-68
2021/11/19 10:42:04;;;;;;;5.18;0.90;;;10.50;99.90;;;;;;4986364;28;19969;-64
2021/11/19 10:44:47;;;;;;;4.60;0.93;;;10.60;99.90;;;;;;4985405;28;20161;-64
2021/11/19 10:47:38;;;;;;;1.73;0.52;;;10.70;99.90;;;;;;4987861;28;20057;-66
2021/11/19 10:50:29;;;;;;;1.45;0.50;;;10.70;99.90;;;;;;4977189;28;20058;-64
2021/11/19 10:53:30;;;;;;;2.53;1.02;;;10.80;99.90;;;;;;4983473;28;20153;-64
2021/11/19 10:56:26;;;;;;;4.88;0.88;;;10.90;99.90;;;;;;4984212;28;20090;-69
2021/11/19 10:58:59;;;;;;;5.60;0.85;;;11.10;99.90;;;;;;4983118;28;20070;-64
2021/11/19 11:02:10;;;;;;;2.90;0.80;;;11.10;99.90;;;;;;4980184;28;20065;-70
2021/11/19 11:04:40;;;;;;;7.28;1.85;;;11.30;99.90;;;;;;4969043;28;20031;-65
2021/11/19 11:07:19;;;;;;;5.35;1.25;;;11.30;99.90;;;;;;4982521;28;20416;-65
2021/11/19 11:10:15;;;;;;;3.90;0.98;;;11.40;99.90;;;;;;4986705;28;20054;-67
2021/11/19 11:12:45;;;;;;;4.45;1.08;;;11.40;99.90;;;;;;4984104;28;20600;-64
2021/11/19 11:15:30;;;;;;;1.02;0.70;;;11.40;99.90;;;;;;4987889;28;20097;-66
2021/11/19 11:18:02;;;;;;;5.88;1.58;;;11.40;99.90;;;;;;4990225;28;20046;-64
2021/11/19 11:21:22;;;;;;;6.03;0.65;;;11.40;99.90;;;;;;4983582;28;20047;-66
2021/11/19 11:23:51;;;;;;;1.30;0.60;;;11.40;99.90;;;;;;4982172;28;20057;-70
2021/11/19 11:26:39;;;;;;;4.03;0.98;;;11.40;99.90;;;;;;4986135;28;20611;-66
2021/11/19 11:29:09;;;;;;;3.10;0.43;;;11.30;99.90;;;;;;4983036;28;20046;-64
2021/11/19 11:32:10;;;;;;;1.02;0.68;;;11.30;99.90;;;;;;4985822;28;20050;-66
2021/11/19 11:34:42;;;;;;;4.03;1.20;;;11.20;99.90;;;;;;4980629;28;20097;-65
2021/11/19 11:37:22;;;;;;;3.55;0.80;;;11.20;99.90;;;;;;4986010;28;20101;-67
2021/11/19 11:40:18;;;;;;;2.13;0.80;;;11.20;99.90;;;;;;4979289;28;20054;-65
2021/11/19 11:42:53;;;;;;;7.68;0.93;;;11.20;99.90;;;;;;4986018;28;20086;-70
2021/11/19 11:45:30;;;;;;;4.00;0.82;;;11.20;99.90;;;;;;4984094;28;20077;-72
2021/11/19 11:48:31;;;;;;;2.75;0.93;;;11.20;99.90;;;;;;4984190;28;20055;-69
2021/11/19 11:51:09;;;;;;;4.25;1.58;;;11.20;99.90;;;;;;4984565;28;20481;-65
2021/11/19 11:53:46;;;;;;;4.75;0.80;;;11.10;99.90;;;;;;4986711;28;20104;-66
2021/11/19 11:56:25;;;;;;;2.78;0.63;;;11.10;99.90;;;;;;4985818;28;20046;-71
2021/11/19 11:58:55;;;;;;;4.40;0.90;;;11.00;99.90;;;;;;4984782;28;20031;-73
2021/11/19 12:02:00;;;;;;;5.43;0.85;;;10.90;99.90;;;;;;4987110;28;20065;-64
2021/11/19 12:04:49;;;;;;;2.92;0.70;;;10.90;99.90;;;;;;4982681;28;20049;-65
2021/11/19 12:07:26;;;;;;;2.80;0.93;;;10.90;99.90;;;;;;4987355;28;20042;-65
2021/11/19 12:10:13;;;;;;;4.28;1.40;;;10.90;99.90;;;;;;4983824;28;20065;-67
2021/11/19 12:12:47;;;;;;;4.63;1.27;;;10.80;99.90;;;;;;4986561;28;20050;-65
2021/11/19 12:15:28;;;;;;;8.10;0.98;;;10.90;99.90;;;;;;4984396;28;20038;-65
2021/11/19 12:18:02;;;;;;;2.40;0.95;;;10.90;99.90;;;;;;4986572;28;20113;-67
2021/11/19 12:20:46;;;;;;;5.45;1.10;;;10.90;99.90;;;;;;4987747;28;20424;-64
2021/11/19 12:23:26;;;;;;;7.05;1.25;;;11.00;99.90;;;;;;4985692;28;20137;-66
2021/11/19 12:26:21;;;;;;;4.97;1.10;;;11.00;99.90;;;;;;4984579;28;20413;-65
2021/11/19 12:29:15;;;;;;;3.22;1.33;;;11.00;99.90;;;;;;4984645;28;20492;-71
2021/11/19 12:32:14;;;;;;;2.67;1.30;;;11.10;99.90;;;;;;4979170;28;20096;-64
2021/11/19 12:35:04;;;;;;;10.68;2.90;;;11.20;99.90;;;;;;4983813;28;20050;-64
2021/11/19 12:37:36;;;;;;;6.00;2.00;;;11.30;99.90;;;;;;4979375;28;20094;-65
2021/11/19 12:40:32;;;;;;;8.52;1.63;;;11.40;99.90;;;;;;4986398;28;20452;-67
2021/11/19 12:43:25;;;;;;;7.15;2.35;;;11.50;99.90;;;;;;4976875;28;20046;-65
2021/11/19 12:46:23;;;;;;;9.20;2.35;;;11.50;99.90;;;;;;4986917;28;20097;-67
2021/11/19 12:49:17;;;;;;;7.60;2.47;;;11.50;99.90;;;;;;4982068;28;20046;-65
2021/11/19 12:52:02;;;;;;;5.10;1.58;;;11.50;99.90;;;;;;4982611;28;20045;-65
2021/11/19 12:54:40;;;;;;;5.53;1.30;;;11.40;99.90;;;;;;4980293;28;20935;-64
2021/11/19 12:57:29;;;;;;;6.25;1.85;;;11.40;99.90;;;;;;4980773;28;20500;-66
2021/11/19 12:59:59;;;;;;;8.50;1.63;;;11.40;99.90;;;;;;4983020;28;20385;-68
2021/11/19 13:02:29;;;;;;;;;;;11.30;99.90;;;;;;4979629;28;20112;-66
2021/11/19 13:05:14;;;;;;;8.40;2.28;;;11.20;99.90;;;;;;4981594;28;19930;-68
2021/11/19 13:07:44;;;;;;;12.50;2.78;;;11.20;99.90;;;;;;4983520;28;20112;-65
2021/11/19 13:10:15;;;;;;;16.83;3.08;;;11.10;99.90;;;;;;4980441;28;20404;-70
2021/11/19 13:13:05;;;;;;;9.85;2.00;;;11.00;99.90;;;;;;4980144;28;20039;-65
2021/11/19 13:16:02;;;;;;;10.07;4.72;;;10.90;99.90;;;;;;4980986;28;20428;-70
2021/11/19 13:18:40;;;;;;;10.93;2.80;;;10.70;99.90;;;;;;4982644;28;20120;-67
2021/11/19 13:21:30;;;;;;;5.70;2.15;;;10.60;99.90;;;;;;4983215;28;20499;-66
2021/11/19 13:24:13;;;;;;;15.20;3.40;;;10.60;99.90;;;;;;4983279;28;20141;-66
2021/11/19 13:27:00;;;;;;;11.20;2.42;;;10.40;99.90;;;;;;4981740;28;20396;-65
2021/11/19 13:29:41;;;;;;;12.10;3.78;;;10.40;99.90;;;;;;4981816;28;20431;-65
2021/11/19 13:32:32;;;;;;;10.75;2.88;;;10.40;99.90;;;;;;4982051;28;20053;-64
2021/11/19 13:35:13;;;;;;;15.40;2.55;;;10.40;99.90;;;;;;4981349;28;20054;-66
2021/11/19 13:38:02;;;;;;;16.58;2.85;;;10.40;99.90;;;;;;4989683;28;20105;-64
2021/11/19 13:40:29;;;;;;;18.52;4.43;;;10.40;99.90;;;;;;4984954;28;20122;-71